Overview Statistics Trail Chart Weather Telemetry Raw packets
 

This is the latest recevied weather packets stored in our database for station/object HS1AXC-1. If no packets are shown the sender has not sent any weather packets the latest 10 day(s).

<< 38 39 40 41 42 43 44 >>
Time Temp. Humidity Pressure Rain* Wind** Luminosity Snow
1788078954 30.56° C 95% 1006 hPa - - 0 W/m² -
1788078332 35° C 65% 1006 hPa - - 0 W/m² -
1788077710 36.11° C 61% 1006 hPa - - 2 W/m² -
1788077088 36.11° C 63% 1006 hPa - - 1 W/m² -
1788076466 35.56° C 64% 1006 hPa - - 1 W/m² -
1788075844 36.11° C 60% 1006 hPa - - 1 W/m² -
1788075222 36.11° C 60% 1007 hPa - - 2 W/m² -
1788074600 35.56° C 60% 1007 hPa - - 2 W/m² -
1788073978 35.56° C 59% 1007 hPa - - 1 W/m² -
1788073356 36.67° C 58% 1007 hPa - - 2 W/m² -
1788072734 36.11° C 59% 1007 hPa - - 3 W/m² -
1788072112 36.11° C 60% 1007 hPa - - 2 W/m² -
1788071490 35.56° C 60% 1007 hPa - - 1 W/m² -
1788070878 36.11° C 60% 1008 hPa - - 1 W/m² -
1788070246 35.56° C 62% 1008 hPa - - 2 W/m² -
1788069624 35.56° C 62% 1008 hPa - - 2 W/m² -
1788069276 35.56° C 62% 1008 hPa - - 2 W/m² -
1788068654 35.56° C 61% 1008 hPa - - 1 W/m² -
1788068032 35.56° C 62% 1008 hPa - - 2 W/m² -
1788067410 35.56° C 62% 1009 hPa - - 2 W/m² -
1788066788 35.56° C 63% 1009 hPa - - 2 W/m² -
1788066165 35.56° C 64% 1009 hPa - - 1 W/m² -
1788065543 35° C 65% 1009 hPa - - 1 W/m² -
1788064934 35.56° C 66% 1009 hPa - - 2 W/m² -
1788064299 34.44° C 69% 1009 hPa - - 1 W/m² -

* Rain since midnight (hover to see other rain measurements)
** Current wind speed in m/s (hover to see current wind gust speed)